Time;durP1;ratioP1;P1;durP2;ratioP2;P2;SDS_P1;SDS_P2;PMS_P1;PMS_P2;Temp;Humidity;BMP_temperature;BMP_pressure;BME280_temperature;BME280_humidity;BME280_pressure;Samples;Min_cycle;Max_cycle;Signal;HPM_P1;HPM_P2
2021/01/03 00:00:23;;;;;;;21.98;16.17;;;6.70;99.90;;;;;;5094943;28;20202;-86
2021/01/03 00:02:50;;;;;;;21.02;15.95;;;6.70;99.90;;;;;;5088643;28;20265;-86
2021/01/03 00:05:18;;;;;;;23.25;16.60;;;6.60;99.90;;;;;;5097260;28;20219;-86
2021/01/03 00:07:45;;;;;;;24.85;16.50;;;6.60;99.90;;;;;;5097999;28;20208;-86
2021/01/03 00:10:12;;;;;;;21.15;17.45;;;6.60;99.90;;;;;;5095491;28;20535;-87
2021/01/03 00:12:39;;;;;;;23.08;17.65;;;6.70;99.90;;;;;;5095082;28;20196;-85
2021/01/03 00:15:09;;;;;;;24.98;18.85;;;6.70;99.90;;;;;;5096788;28;20200;-87
2021/01/03 00:17:36;;;;;;;26.33;16.60;;;6.60;99.90;;;;;;5094438;28;20189;-86
2021/01/03 00:20:05;;;;;;;23.75;16.48;;;6.60;99.90;;;;;;5093446;28;20251;-88
2021/01/03 00:22:31;;;;;;;22.00;14.73;;;6.60;99.90;;;;;;5092859;28;20194;-88
2021/01/03 00:24:58;;;;;;;25.05;16.95;;;6.60;99.90;;;;;;5096607;28;20205;-87
2021/01/03 00:27:24;;;;;;;24.52;17.00;;;6.60;99.90;;;;;;5095380;28;20194;-87
2021/01/03 00:29:50;;;;;;;27.20;20.25;;;6.60;99.90;;;;;;5095147;28;20189;-87
2021/01/03 00:32:17;;;;;;;25.10;17.23;;;6.60;99.90;;;;;;5094939;28;20714;-87
2021/01/03 00:34:44;;;;;;;24.25;17.98;;;6.60;99.90;;;;;;5093801;28;20186;-87
2021/01/03 00:37:10;;;;;;;27.23;17.50;;;6.60;99.90;;;;;;5094239;28;20217;-87
2021/01/03 00:39:36;;;;;;;26.73;18.73;;;6.70;99.90;;;;;;5096361;28;20201;-87
2021/01/03 00:42:03;;;;;;;28.27;18.10;;;6.60;99.90;;;;;;5095258;28;20190;-87
2021/01/03 00:44:29;;;;;;;24.75;17.27;;;6.60;99.90;;;;;;5094179;28;20201;-86
2021/01/03 00:46:55;;;;;;;24.67;18.90;;;6.60;99.90;;;;;;5096759;28;20207;-86
2021/01/03 00:49:22;;;;;;;26.42;19.27;;;6.60;99.90;;;;;;5095743;28;20190;-86
2021/01/03 00:51:49;;;;;;;25.13;18.20;;;6.70;99.90;;;;;;5095141;28;20668;-86
2021/01/03 00:54:15;;;;;;;24.75;18.52;;;6.70;99.90;;;;;;5093694;28;20269;-90
2021/01/03 00:56:41;;;;;;;25.98;18.67;;;6.70;99.90;;;;;;5096712;28;20205;-86
2021/01/03 00:59:07;;;;;;;22.10;17.85;;;6.60;99.90;;;;;;5094037;28;20198;-87
2021/01/03 01:01:34;;;;;;;27.27;19.08;;;6.60;99.90;;;;;;5094670;28;20201;-86
2021/01/03 01:04:00;;;;;;;25.75;17.70;;;6.60;99.90;;;;;;5089382;28;20190;-86
2021/01/03 01:06:27;;;;;;;24.60;18.38;;;6.60;99.90;;;;;;5087953;28;20656;-87
2021/01/03 01:08:53;;;;;;;29.77;19.77;;;6.60;99.90;;;;;;5089375;28;20193;-86
2021/01/03 01:11:20;;;;;;;28.17;20.10;;;6.60;99.90;;;;;;5094130;28;20220;-87
2021/01/03 01:13:46;;;;;;;24.63;17.73;;;6.70;99.90;;;;;;5094947;28;20211;-86
2021/01/03 01:16:12;;;;;;;24.08;17.63;;;6.60;99.90;;;;;;5092802;28;20258;-86
2021/01/03 01:18:39;;;;;;;24.05;17.38;;;6.70;99.90;;;;;;5094927;28;20867;-87
2021/01/03 01:21:06;;;;;;;24.30;17.80;;;6.60;99.90;;;;;;5095337;28;20189;-87
2021/01/03 01:23:33;;;;;;;25.75;17.85;;;6.60;99.90;;;;;;5091276;28;20625;-86
2021/01/03 01:26:00;;;;;;;24.70;17.58;;;6.60;99.90;;;;;;5095880;28;20633;-87
2021/01/03 01:28:26;;;;;;;27.60;18.35;;;6.60;99.90;;;;;;5092312;28;20189;-86
2021/01/03 01:30:52;;;;;;;26.40;19.17;;;6.60;99.90;;;;;;5090663;28;20210;-86
2021/01/03 01:33:19;;;;;;;29.38;18.80;;;6.50;99.90;;;;;;5091635;28;20185;-86
2021/01/03 01:35:46;;;;;;;27.40;18.30;;;6.50;99.90;;;;;;5095269;28;20205;-86
2021/01/03 01:38:12;;;;;;;24.33;18.13;;;6.50;99.90;;;;;;5083525;28;20237;-83
2021/01/03 01:40:41;;;;;;;26.17;17.73;;;6.50;99.90;;;;;;5093891;28;20400;-83
2021/01/03 01:43:11;;;;;;;26.25;20.10;;;6.50;99.90;;;;;;5091425;28;20193;-83
2021/01/03 01:45:40;;;;;;;26.08;19.15;;;6.50;99.90;;;;;;5094016;28;20255;-84
2021/01/03 01:48:11;;;;;;;25.50;18.73;;;6.50;99.90;;;;;;5091160;28;20197;-83
2021/01/03 01:50:40;;;;;;;25.70;16.83;;;6.50;99.90;;;;;;5090509;28;20217;-83
2021/01/03 01:53:11;;;;;;;29.20;19.92;;;6.50;99.90;;;;;;5088948;28;20194;-84
2021/01/03 01:55:42;;;;;;;22.52;16.77;;;6.50;99.90;;;;;;5093145;28;20208;-83
2021/01/03 01:58:17;;;;;;;24.75;18.60;;;6.50;99.90;;;;;;5092898;28;20190;-84
2021/01/03 02:00:46;;;;;;;27.65;18.15;;;6.50;99.90;;;;;;5089710;28;20177;-83
2021/01/03 02:03:20;;;;;;;24.00;16.73;;;6.50;99.90;;;;;;5092813;28;20189;-86
2021/01/03 02:05:52;;;;;;;24.80;18.02;;;6.50;99.90;;;;;;5094311;28;20235;-85
2021/01/03 02:08:25;;;;;;;26.17;18.25;;;6.50;99.90;;;;;;5086455;28;20618;-84
2021/01/03 02:10:53;;;;;;;23.20;17.52;;;6.50;99.90;;;;;;5095723;28;20212;-90
2021/01/03 02:13:23;;;;;;;28.08;19.30;;;6.50;99.90;;;;;;5096890;28;20529;-88
2021/01/03 02:15:50;;;;;;;24.65;16.90;;;6.50;99.90;;;;;;5090623;28;20197;-88
2021/01/03 02:18:17;;;;;;;29.42;19.40;;;6.50;99.90;;;;;;5094638;28;20209;-88
2021/01/03 02:20:54;;;;;;;23.80;17.80;;;6.50;99.90;;;;;;5095565;28;20189;-89
2021/01/03 02:23:37;;;;;;;21.77;17.65;;;6.50;99.90;;;;;;5094861;28;20252;-89
2021/01/03 02:26:06;;;;;;;27.00;15.85;;;6.50;99.90;;;;;;5090402;28;20255;-90
2021/01/03 02:28:37;;;;;;;25.13;16.55;;;6.50;99.90;;;;;;5096004;28;20189;-87
2021/01/03 02:31:04;;;;;;;21.77;16.40;;;6.50;99.90;;;;;;5093683;28;20679;-87
2021/01/03 02:33:35;;;;;;;23.30;17.38;;;6.50;99.90;;;;;;5087868;28;20197;-89
2021/01/03 02:36:07;;;;;;;22.23;18.10;;;6.50;99.90;;;;;;5094911;28;20201;-89
2021/01/03 02:38:39;;;;;;;24.33;17.45;;;6.50;99.90;;;;;;5096259;28;20232;-89
2021/01/03 02:41:06;;;;;;;27.92;18.48;;;6.50;99.90;;;;;;5090566;28;20221;-89
2021/01/03 02:43:33;;;;;;;23.83;18.70;;;6.50;99.90;;;;;;5093999;28;20197;-91
2021/01/03 02:45:59;;;;;;;22.17;17.42;;;6.60;99.90;;;;;;5095415;28;20206;-91
2021/01/03 02:48:26;;;;;;;25.33;17.95;;;6.50;99.90;;;;;;5087076;28;20201;-91
2021/01/03 02:50:52;;;;;;;24.38;17.63;;;6.50;99.90;;;;;;5092355;28;20600;-92
2021/01/03 02:53:19;;;;;;;26.88;18.73;;;6.50;99.90;;;;;;5094402;28;20899;-91
2021/01/03 02:55:46;;;;;;;26.15;17.63;;;6.50;99.90;;;;;;5087486;28;20255;-91
2021/01/03 02:58:14;;;;;;;25.23;17.85;;;6.50;99.90;;;;;;5097312;28;20190;-89
2021/01/03 03:00:40;;;;;;;26.80;17.02;;;6.50;99.90;;;;;;5095345;28;20197;-90
2021/01/03 03:03:08;;;;;;;22.17;16.10;;;6.50;99.90;;;;;;5083738;28;20522;-92
2021/01/03 03:05:35;;;;;;;22.40;17.25;;;6.50;99.90;;;;;;5095908;28;20204;-88
2021/01/03 03:08:01;;;;;;;22.52;15.82;;;6.50;99.90;;;;;;5094046;28;20194;-86
2021/01/03 03:10:29;;;;;;;25.17;16.02;;;6.50;99.90;;;;;;5090565;28;20557;-85
2021/01/03 03:12:57;;;;;;;25.95;16.85;;;6.50;99.90;;;;;;5092982;28;20204;-84
2021/01/03 03:15:26;;;;;;;23.25;17.58;;;6.50;99.90;;;;;;5089169;28;20503;-84
2021/01/03 03:17:54;;;;;;;19.60;14.45;;;6.50;99.90;;;;;;5089464;28;20205;-85
2021/01/03 03:20:22;;;;;;;23.60;16.35;;;6.50;99.90;;;;;;5094251;28;20194;-88
2021/01/03 03:22:48;;;;;;;23.15;16.55;;;6.50;99.90;;;;;;5091134;28;20194;-88
2021/01/03 03:25:16;;;;;;;21.05;16.95;;;6.50;99.90;;;;;;5095171;28;20198;-88
2021/01/03 03:27:43;;;;;;;21.45;16.10;;;6.50;99.90;;;;;;5095417;28;20207;-88
2021/01/03 03:30:12;;;;;;;22.77;14.88;;;6.50;99.90;;;;;;5095456;28;20278;-87
2021/01/03 03:32:40;;;;;;;25.55;16.98;;;6.50;99.90;;;;;;5091755;28;20201;-86
2021/01/03 03:35:07;;;;;;;25.77;15.57;;;6.40;99.90;;;;;;5089393;28;20189;-86
2021/01/03 03:37:33;;;;;;;26.30;16.83;;;6.50;99.90;;;;;;5092544;28;20233;-87
2021/01/03 03:40:00;;;;;;;22.60;15.23;;;6.40;99.90;;;;;;5089437;28;20196;-86
2021/01/03 03:42:26;;;;;;;19.88;13.27;;;6.40;99.90;;;;;;5089989;28;20278;-87
2021/01/03 03:44:52;;;;;;;24.20;16.67;;;6.40;99.90;;;;;;5092827;28;20190;-86
2021/01/03 03:47:19;;;;;;;24.90;15.70;;;6.40;99.90;;;;;;5093702;28;20201;-87
2021/01/03 03:49:46;;;;;;;31.67;17.52;;;6.40;99.90;;;;;;5092409;28;20754;-87
2021/01/03 03:52:12;;;;;;;17.63;13.02;;;6.40;99.90;;;;;;5091730;28;20522;-86
2021/01/03 03:54:38;;;;;;;22.38;15.90;;;6.40;99.90;;;;;;5088164;28;20194;-87
2021/01/03 03:57:06;;;;;;;19.65;14.65;;;6.40;99.90;;;;;;5093704;28;20189;-86
2021/01/03 03:59:32;;;;;;;24.75;15.80;;;6.40;99.90;;;;;;5088845;28;20250;-85
2021/01/03 04:01:59;;;;;;;20.10;14.90;;;6.40;99.90;;;;;;5091431;28;20189;-88
2021/01/03 04:04:26;;;;;;;19.42;13.98;;;6.50;99.90;;;;;;5091674;28;20186;-86
2021/01/03 04:06:54;;;;;;;20.10;15.68;;;6.40;99.90;;;;;;5091910;28;20209;-85
2021/01/03 04:09:20;;;;;;;22.88;16.08;;;6.30;99.90;;;;;;5092210;28;20193;-86
2021/01/03 04:11:49;;;;;;;23.00;15.50;;;6.30;99.90;;;;;;5091981;28;20225;-87
2021/01/03 04:14:17;;;;;;;22.30;15.50;;;6.30;99.90;;;;;;5091129;28;20190;-86
2021/01/03 04:16:47;;;;;;;23.88;15.70;;;6.30;99.90;;;;;;5093090;28;20679;-86
2021/01/03 04:19:14;;;;;;;19.65;13.57;;;6.30;99.90;;;;;;5088116;28;20186;-86
2021/01/03 04:21:40;;;;;;;17.58;13.30;;;6.30;99.90;;;;;;5090031;28;20194;-88
2021/01/03 04:24:09;;;;;;;19.83;13.30;;;6.30;99.90;;;;;;5088969;28;20209;-84
2021/01/03 04:26:35;;;;;;;17.70;14.20;;;6.30;99.90;;;;;;5089337;28;20611;-84
2021/01/03 04:29:01;;;;;;;22.52;13.65;;;6.30;99.90;;;;;;5088529;28;20189;-86
2021/01/03 04:31:27;;;;;;;16.17;12.57;;;6.30;99.90;;;;;;5091774;28;20210;-86
2021/01/03 04:33:54;;;;;;;19.33;13.52;;;6.30;99.90;;;;;;5085423;28;20201;-84
2021/01/03 04:36:20;;;;;;;17.73;12.23;;;6.30;99.90;;;;;;5090750;28;20190;-83
2021/01/03 04:38:47;;;;;;;20.90;14.55;;;6.30;99.90;;;;;;5095293;28;20720;-81
2021/01/03 04:41:19;;;;;;;20.38;13.45;;;6.30;99.90;;;;;;5095287;28;20192;-82
2021/01/03 04:43:46;;;;;;;18.60;12.85;;;6.30;99.90;;;;;;5086498;28;20197;-82
2021/01/03 04:46:19;;;;;;;21.10;12.93;;;6.30;99.90;;;;;;5094895;28;20643;-82
2021/01/03 04:48:50;;;;;;;16.75;12.02;;;6.20;99.90;;;;;;5092226;28;20247;-88
2021/01/03 04:51:26;;;;;;;17.88;11.68;;;6.20;99.90;;;;;;5086295;28;20220;-87
2021/01/03 04:54:10;;;;;;;16.23;11.63;;;6.30;99.90;;;;;;5089913;28;20216;-88
2021/01/03 04:56:54;;;;;;;19.23;13.32;;;6.20;99.90;;;;;;5095576;28;20186;-87
2021/01/03 04:59:35;;;;;;;20.25;11.35;;;6.20;99.90;;;;;;5097902;28;20185;-88
2021/01/03 05:02:27;;;;;;;14.48;11.57;;;6.10;99.90;;;;;;5095669;28;20251;-89
2021/01/03 05:05:02;;;;;;;17.38;10.43;;;6.20;99.90;;;;;;5096912;28;20185;-85
2021/01/03 05:07:31;;;;;;;17.85;11.02;;;6.20;99.90;;;;;;5093772;28;20197;-86
2021/01/03 05:10:09;;;;;;;13.75;10.02;;;6.20;99.90;;;;;;5095423;28;20189;-85
2021/01/03 05:12:49;;;;;;;12.15;10.07;;;6.20;99.90;;;;;;5094201;28;20202;-85
2021/01/03 05:15:22;;;;;;;13.93;11.05;;;6.20;99.90;;;;;;5091131;28;20198;-83
2021/01/03 05:17:49;;;;;;;12.93;8.45;;;6.20;99.90;;;;;;5089259;28;20186;-86
2021/01/03 05:20:15;;;;;;;14.85;10.05;;;6.20;99.90;;;;;;5096007;28;20216;-86
2021/01/03 05:22:43;;;;;;;13.98;9.77;;;6.20;99.90;;;;;;5088143;28;20506;-84
2021/01/03 05:25:12;;;;;;;15.57;10.13;;;6.20;99.90;;;;;;5093401;28;20212;-81
2021/01/03 05:27:40;;;;;;;14.02;10.07;;;6.10;99.90;;;;;;5092465;28;20212;-83
2021/01/03 05:30:13;;;;;;;15.73;9.75;;;6.10;99.90;;;;;;5093134;28;20648;-84
2021/01/03 05:32:39;;;;;;;13.43;10.02;;;6.10;99.90;;;;;;5091688;28;20210;-84
2021/01/03 05:35:17;;;;;;;11.68;9.00;;;6.10;99.90;;;;;;5091017;28;20192;-83
2021/01/03 05:37:45;;;;;;;12.18;8.23;;;6.20;99.90;;;;;;5094147;28;20221;-84
2021/01/03 05:40:29;;;;;;;10.77;8.48;;;6.20;99.90;;;;;;5091905;28;20526;-83
2021/01/03 05:43:18;;;;;;;11.57;8.40;;;6.20;99.90;;;;;;5092045;28;20258;-83
2021/01/03 05:45:57;;;;;;;13.43;9.25;;;6.20;99.90;;;;;;5091693;28;20189;-83
2021/01/03 05:48:26;;;;;;;10.57;8.93;;;6.10;99.90;;;;;;5087638;28;20193;-83
2021/01/03 05:50:52;;;;;;;12.77;8.25;;;6.20;99.90;;;;;;5095540;28;20221;-88
2021/01/03 05:53:22;;;;;;;12.40;8.50;;;6.20;99.90;;;;;;5091975;28;20546;-90
2021/01/03 05:55:55;;;;;;;9.95;8.70;;;6.20;99.90;;;;;;5091285;28;20205;-89
2021/01/03 05:58:28;;;;;;;11.13;7.85;;;6.10;99.90;;;;;;5088107;28;20193;-90
2021/01/03 06:00:55;;;;;;;10.40;7.85;;;6.20;99.90;;;;;;5091942;28;20198;-82
2021/01/03 06:03:25;;;;;;;11.00;8.23;;;6.20;99.90;;;;;;5089960;28;20523;-83
2021/01/03 06:05:54;;;;;;;12.05;7.75;;;6.10;99.90;;;;;;5092625;28;20212;-85
2021/01/03 06:08:23;;;;;;;11.98;7.78;;;6.20;99.90;;;;;;5093656;28;20189;-85
2021/01/03 06:10:51;;;;;;;9.50;7.05;;;6.10;99.90;;;;;;5090663;28;20222;-86
2021/01/03 06:13:19;;;;;;;9.05;6.78;;;6.10;99.90;;;;;;5094524;28;20189;-86
2021/01/03 06:15:52;;;;;;;10.32;7.90;;;6.10;99.90;;;;;;5093398;28;20204;-83
2021/01/03 06:18:31;;;;;;;10.80;7.63;;;6.10;99.90;;;;;;5091008;28;20198;-83
2021/01/03 06:20:58;;;;;;;8.98;6.75;;;6.10;99.90;;;;;;5092250;28;20266;-83
2021/01/03 06:23:31;;;;;;;9.75;6.90;;;6.20;99.90;;;;;;5092716;28;20654;-82
2021/01/03 06:26:01;;;;;;;8.35;6.45;;;6.20;99.90;;;;;;5092267;28;20189;-85
2021/01/03 06:28:47;;;;;;;9.05;6.20;;;6.10;99.90;;;;;;5093849;28;20198;-83
2021/01/03 06:31:45;;;;;;;9.95;6.90;;;6.10;99.90;;;;;;5093180;28;20673;-84
2021/01/03 06:34:22;;;;;;;9.15;7.03;;;6.10;99.90;;;;;;5091257;28;20207;-88
2021/01/03 06:36:58;;;;;;;10.23;6.75;;;6.10;99.90;;;;;;5087030;28;20225;-82
2021/01/03 06:39:39;;;;;;;8.98;7.60;;;6.10;99.90;;;;;;5091158;28;20203;-81
2021/01/03 06:42:18;;;;;;;8.77;5.82;;;6.10;99.90;;;;;;5086235;28;20264;-82
2021/01/03 06:45:14;;;;;;;9.63;5.55;;;6.10;99.90;;;;;;5092965;28;20186;-89
2021/01/03 06:48:19;;;;;;;7.97;6.28;;;6.10;99.90;;;;;;5091562;28;20277;-87
2021/01/03 06:51:13;;;;;;;11.65;5.57;;;6.10;99.90;;;;;;5091012;28;20254;-86
2021/01/03 06:54:23;;;;;;;8.23;5.97;;;6.10;99.90;;;;;;5094318;28;20190;-86
2021/01/03 06:57:09;;;;;;;7.82;6.03;;;6.10;99.90;;;;;;5089076;28;20209;-85
2021/01/03 06:59:59;;;;;;;10.73;6.53;;;6.10;99.90;;;;;;5091521;28;20185;-84
2021/01/03 07:02:26;;;;;;;8.38;6.25;;;6.10;99.90;;;;;;5091865;28;20244;-85
2021/01/03 07:04:53;;;;;;;8.10;5.55;;;6.10;99.90;;;;;;5088971;28;20212;-84
2021/01/03 07:07:27;;;;;;;6.55;5.72;;;6.10;99.90;;;;;;5090694;28;20221;-84
2021/01/03 07:09:58;;;;;;;5.82;4.80;;;6.10;99.90;;;;;;5089218;28;20211;-84
2021/01/03 07:12:40;;;;;;;8.52;5.88;;;6.10;99.90;;;;;;5089929;28;20228;-85
2021/01/03 07:15:12;;;;;;;7.72;5.80;;;6.00;99.90;;;;;;5086565;28;20224;-83
2021/01/03 07:18:15;;;;;;;6.43;5.03;;;6.00;99.90;;;;;;5088587;28;20202;-83
2021/01/03 07:20:51;;;;;;;5.97;5.03;;;6.00;99.90;;;;;;5090389;28;20196;-83
2021/01/03 07:23:29;;;;;;;4.50;4.10;;;6.00;99.90;;;;;;5091256;28;20197;-83
2021/01/03 07:26:13;;;;;;;5.28;4.35;;;6.00;99.90;;;;;;5088933;28;20527;-83
2021/01/03 07:28:39;;;;;;;6.05;4.60;;;6.00;99.90;;;;;;5087769;28;20528;-83
2021/01/03 07:31:12;;;;;;;6.45;4.43;;;6.00;99.90;;;;;;5089262;28;20209;-80
2021/01/03 07:33:50;;;;;;;4.88;4.18;;;6.00;99.90;;;;;;5092081;28;20182;-86
2021/01/03 07:36:39;;;;;;;4.30;3.90;;;6.00;99.90;;;;;;5087022;28;20262;-84
2021/01/03 07:39:12;;;;;;;4.63;4.07;;;6.00;99.90;;;;;;5088184;28;20177;-83
2021/01/03 07:41:39;;;;;;;5.45;4.35;;;6.00;99.90;;;;;;5091177;28;20239;-83
2021/01/03 07:44:07;;;;;;;5.10;4.03;;;6.00;99.90;;;;;;5089516;28;20194;-82
2021/01/03 07:46:49;;;;;;;5.30;4.20;;;6.00;99.90;;;;;;5090885;28;20873;-83
2021/01/03 07:49:37;;;;;;;5.25;4.28;;;6.10;99.90;;;;;;5084093;28;20241;-87
2021/01/03 07:52:26;;;;;;;6.00;4.03;;;6.10;99.90;;;;;;5092705;28;20568;-88
2021/01/03 07:54:56;;;;;;;4.18;3.85;;;6.10;99.90;;;;;;5087698;28;20186;-83
2021/01/03 07:57:26;;;;;;;4.45;3.58;;;6.20;99.90;;;;;;5089535;28;20531;-82
2021/01/03 07:59:53;;;;;;;4.50;3.58;;;6.20;99.90;;;;;;5090025;28;20189;-81
2021/01/03 08:02:24;;;;;;;5.50;3.88;;;6.20;99.90;;;;;;5089517;28;20259;-81
2021/01/03 08:04:53;;;;;;;5.63;4.25;;;6.30;99.90;;;;;;5086908;28;20197;-80
2021/01/03 08:07:19;;;;;;;4.00;3.40;;;6.30;99.90;;;;;;5090255;28;20193;-80
2021/01/03 08:09:46;;;;;;;5.65;5.03;;;6.20;99.90;;;;;;5090720;28;20194;-80
2021/01/03 08:12:19;;;;;;;4.13;3.33;;;6.20;99.90;;;;;;5092430;28;20209;-80
2021/01/03 08:14:47;;;;;;;4.93;4.38;;;6.20;99.90;;;;;;5094407;28;20251;-81
2021/01/03 08:17:20;;;;;;;5.25;4.40;;;6.20;99.90;;;;;;5091168;28;20190;-82
2021/01/03 08:19:47;;;;;;;6.35;4.05;;;6.20;99.90;;;;;;5090694;28;20186;-88
2021/01/03 08:22:21;;;;;;;4.03;3.55;;;6.20;99.90;;;;;;5094655;28;20242;-87
2021/01/03 08:24:52;;;;;;;6.93;4.18;;;6.30;99.90;;;;;;5094718;28;20184;-80
2021/01/03 08:27:24;;;;;;;9.52;4.50;;;6.20;99.90;;;;;;5093323;28;20190;-76
2021/01/03 08:29:57;;;;;;;5.82;4.28;;;6.20;99.90;;;;;;5094125;28;20234;-77
2021/01/03 08:32:26;;;;;;;5.45;3.55;;;6.20;99.90;;;;;;5088276;28;20201;-77
2021/01/03 08:34:58;;;;;;;3.42;3.10;;;6.20;99.90;;;;;;5091340;28;20212;-77
2021/01/03 08:37:28;;;;;;;5.82;5.28;;;6.20;99.90;;;;;;5091300;28;20225;-76
2021/01/03 08:39:55;;;;;;;5.35;3.92;;;6.20;99.90;;;;;;5094923;28;20186;-76
2021/01/03 08:42:30;;;;;;;5.72;4.00;;;6.20;99.90;;;;;;5093280;28;20193;-77
2021/01/03 08:44:58;;;;;;;4.07;3.67;;;6.20;99.90;;;;;;5089752;28;20181;-77
2021/01/03 08:47:30;;;;;;;4.63;3.58;;;6.20;99.90;;;;;;5090848;28;20223;-76
2021/01/03 08:50:07;;;;;;;3.90;3.58;;;6.20;99.90;;;;;;5089429;28;20254;-76
2021/01/03 08:52:34;;;;;;;4.78;3.83;;;6.20;99.90;;;;;;5089023;28;20201;-76
2021/01/03 08:55:09;;;;;;;4.05;3.03;;;6.20;99.90;;;;;;5094115;28;20206;-77
2021/01/03 08:57:38;;;;;;;5.60;3.75;;;6.20;99.90;;;;;;5091842;28;20545;-77
2021/01/03 09:00:06;;;;;;;6.45;3.60;;;6.20;99.90;;;;;;5092300;28;20193;-77
2021/01/03 09:02:33;;;;;;;4.85;3.90;;;6.20;99.90;;;;;;5093360;28;20190;-77
2021/01/03 09:05:02;;;;;;;4.55;3.10;;;6.20;99.90;;;;;;5090421;28;20259;-77
2021/01/03 09:07:33;;;;;;;6.03;4.13;;;6.20;99.90;;;;;;5094281;28;20666;-77
2021/01/03 09:10:01;;;;;;;3.65;2.70;;;6.20;99.90;;;;;;5092833;28;20181;-78
2021/01/03 09:12:38;;;;;;;3.70;3.40;;;6.40;99.90;;;;;;5092875;28;20217;-77
2021/01/03 09:15:12;;;;;;;5.15;3.78;;;6.30;99.90;;;;;;5088189;28;20189;-79
2021/01/03 09:17:40;;;;;;;4.13;3.38;;;6.20;99.90;;;;;;5088313;28;20186;-79
2021/01/03 09:20:18;;;;;;;5.13;3.92;;;6.20;99.90;;;;;;5091328;28;20221;-79
2021/01/03 09:22:49;;;;;;;4.32;3.67;;;6.20;99.90;;;;;;5089734;28;20185;-79
2021/01/03 09:25:21;;;;;;;5.00;3.78;;;6.20;99.90;;;;;;5093889;28;20182;-79
2021/01/03 09:27:53;;;;;;;4.43;3.42;;;6.30;99.90;;;;;;5088955;28;20209;-79
2021/01/03 09:30:32;;;;;;;4.13;3.65;;;6.30;99.90;;;;;;5091732;28;20250;-80
2021/01/03 09:33:09;;;;;;;4.47;3.10;;;6.20;99.90;;;;;;5093071;28;20209;-78
2021/01/03 09:36:05;;;;;;;3.78;2.70;;;6.20;99.90;;;;;;5091839;28;20224;-79
2021/01/03 09:39:03;;;;;;;3.67;3.28;;;6.20;99.90;;;;;;5090663;28;20221;-77
2021/01/03 09:41:45;;;;;;;3.22;2.92;;;6.20;99.90;;;;;;5089759;28;20185;-81
2021/01/03 09:44:21;;;;;;;3.95;3.47;;;6.30;99.90;;;;;;5089705;28;20194;-77
2021/01/03 09:46:56;;;;;;;3.65;3.00;;;6.30;99.90;;;;;;5091958;28;20326;-79
2021/01/03 09:49:39;;;;;;;6.30;3.75;;;6.40;99.90;;;;;;5089768;28;20186;-79
2021/01/03 09:52:16;;;;;;;7.35;4.00;;;6.30;99.90;;;;;;5086471;28;20202;-86
2021/01/03 09:54:52;;;;;;;3.35;3.05;;;6.30;99.90;;;;;;5094928;28;20186;-86
2021/01/03 09:57:33;;;;;;;4.65;3.72;;;6.30;99.90;;;;;;5092837;28;20188;-84
2021/01/03 10:00:00;;;;;;;4.15;3.70;;;6.40;99.90;;;;;;5093477;28;20842;-85
2021/01/03 10:02:27;;;;;;;3.90;3.50;;;6.30;99.90;;;;;;5093625;28;20197;-86
2021/01/03 10:04:54;;;;;;;3.97;3.40;;;6.30;99.90;;;;;;5090070;28;20197;-87
2021/01/03 10:07:23;;;;;;;3.28;2.85;;;6.30;99.90;;;;;;5093152;28;20225;-85
2021/01/03 10:09:55;;;;;;;4.90;3.65;;;6.20;99.90;;;;;;5084066;28;20540;-86
2021/01/03 10:12:36;;;;;;;4.57;3.50;;;6.20;99.90;;;;;;5093553;28;20213;-85
2021/01/03 10:15:13;;;;;;;3.60;2.80;;;6.20;99.90;;;;;;5092006;28;20204;-86
2021/01/03 10:17:41;;;;;;;3.25;2.95;;;6.30;99.90;;;;;;5088403;28;20185;-85
2021/01/03 10:20:32;;;;;;;4.57;3.15;;;6.20;99.90;;;;;;5090112;28;20205;-87
2021/01/03 10:22:59;;;;;;;2.80;2.45;;;6.20;99.90;;;;;;5091090;28;20251;-85
2021/01/03 10:25:26;;;;;;;3.40;2.58;;;6.20;99.90;;;;;;5087266;28;20201;-84
2021/01/03 10:28:12;;;;;;;4.00;3.40;;;6.20;99.90;;;;;;5093571;28;20271;-85
2021/01/03 10:30:40;;;;;;;5.15;3.00;;;6.20;99.90;;;;;;5091094;28;20636;-85
2021/01/03 10:33:07;;;;;;;3.65;2.72;;;6.20;99.90;;;;;;5090197;28;20205;-84
2021/01/03 10:35:33;;;;;;;4.15;3.30;;;6.20;99.90;;;;;;5092755;28;20190;-85
2021/01/03 10:38:00;;;;;;;5.05;3.38;;;6.30;99.90;;;;;;5090918;28;20232;-85
2021/01/03 10:40:26;;;;;;;3.05;2.75;;;6.30;99.90;;;;;;5088239;28;20226;-84
2021/01/03 10:42:53;;;;;;;3.65;3.05;;;6.20;99.90;;;;;;5093150;28;20529;-85
2021/01/03 10:45:21;;;;;;;5.85;3.05;;;6.20;99.90;;;;;;5087024;28;20205;-86
2021/01/03 10:47:48;;;;;;;3.95;2.80;;;6.20;99.90;;;;;;5089535;28;20216;-84
2021/01/03 10:50:17;;;;;;;7.30;3.88;;;6.20;99.90;;;;;;5089512;28;20579;-85
2021/01/03 10:52:43;;;;;;;4.10;3.60;;;6.30;99.90;;;;;;5089833;28;20855;-79
2021/01/03 10:55:11;;;;;;;4.07;3.15;;;6.20;99.90;;;;;;5084544;28;20652;-83
2021/01/03 10:57:37;;;;;;;3.65;2.97;;;6.20;99.90;;;;;;5092548;28;20210;-83
2021/01/03 11:00:06;;;;;;;4.20;3.80;;;6.30;99.90;;;;;;5087571;28;20194;-81
2021/01/03 11:02:32;;;;;;;4.53;3.50;;;6.30;99.90;;;;;;5089269;28;20205;-82
2021/01/03 11:04:59;;;;;;;4.00;3.60;;;6.30;99.90;;;;;;5091531;28;20208;-83
2021/01/03 11:07:25;;;;;;;8.10;4.50;;;6.20;99.90;;;;;;5092118;28;20215;-78
2021/01/03 11:09:52;;;;;;;4.82;3.85;;;6.30;99.90;;;;;;5090785;28;20185;-81
2021/01/03 11:12:19;;;;;;;4.07;3.65;;;6.30;99.90;;;;;;5092356;28;20214;-86
2021/01/03 11:14:45;;;;;;;5.40;4.30;;;6.20;99.90;;;;;;5091513;28;20225;-84
2021/01/03 11:17:15;;;;;;;3.97;3.58;;;6.20;99.90;;;;;;5086733;28;20200;-80
2021/01/03 11:19:42;;;;;;;4.13;3.70;;;6.20;99.90;;;;;;5087398;28;20197;-82
2021/01/03 11:22:12;;;;;;;4.28;3.88;;;6.30;99.90;;;;;;5091279;28;20204;-82
2021/01/03 11:24:39;;;;;;;4.18;3.67;;;6.30;99.90;;;;;;5089604;28;20194;-79
2021/01/03 11:27:08;;;;;;;5.25;4.05;;;6.20;99.90;;;;;;5086883;28;20227;-79
2021/01/03 11:29:35;;;;;;;7.30;4.25;;;6.20;99.90;;;;;;5090994;28;20194;-82
2021/01/03 11:32:02;;;;;;;4.60;4.07;;;6.20;99.90;;;;;;5090016;28;20217;-79
2021/01/03 11:34:30;;;;;;;5.10;4.50;;;6.20;99.90;;;;;;5091044;28;20201;-85
2021/01/03 11:36:58;;;;;;;4.90;3.92;;;6.10;99.90;;;;;;5092191;28;20673;-80
2021/01/03 11:39:28;;;;;;;6.75;4.72;;;6.10;99.90;;;;;;5092280;28;20201;-84
2021/01/03 11:41:55;;;;;;;4.88;3.72;;;6.10;99.90;;;;;;5084835;28;20189;-78
2021/01/03 11:44:23;;;;;;;6.65;4.32;;;6.10;99.90;;;;;;5093503;28;20196;-81
2021/01/03 11:46:50;;;;;;;6.35;4.78;;;6.10;99.90;;;;;;5095099;28;20197;-80
2021/01/03 11:49:17;;;;;;;5.57;4.10;;;6.20;99.90;;;;;;5096781;28;20216;-91
2021/01/03 11:51:49;;;;;;;5.00;3.65;;;6.20;99.90;;;;;;5099425;28;20201;-88
2021/01/03 11:54:15;;;;;;;6.40;4.60;;;6.20;99.90;;;;;;5099641;28;20186;-83
2021/01/03 11:56:42;;;;;;;5.75;4.65;;;6.20;99.90;;;;;;5097217;28;20632;-82
2021/01/03 11:59:09;;;;;;;5.80;4.63;;;6.30;99.90;;;;;;5098487;28;20193;-81
2021/01/03 12:01:35;;;;;;;5.38;4.00;;;6.20;99.90;;;;;;5095038;28;20193;-80
2021/01/03 12:04:01;;;;;;;5.22;4.20;;;6.20;99.90;;;;;;5096181;28;20242;-80
2021/01/03 12:06:28;;;;;;;9.25;5.22;;;6.20;99.90;;;;;;5097905;28;20200;-80
2021/01/03 12:08:54;;;;;;;9.02;5.38;;;6.20;99.90;;;;;;5095784;28;20638;-88
2021/01/03 12:11:23;;;;;;;5.20;4.20;;;6.20;99.90;;;;;;5097531;28;20744;-80
2021/01/03 12:13:52;;;;;;;4.63;3.92;;;6.30;99.90;;;;;;5097983;28;20193;-80
2021/01/03 12:16:19;;;;;;;6.13;4.65;;;6.30;99.90;;;;;;5094917;28;20262;-81
2021/01/03 12:18:46;;;;;;;11.20;4.78;;;6.30;99.90;;;;;;5097212;28;20197;-85
2021/01/03 12:21:12;;;;;;;6.80;5.18;;;6.20;99.90;;;;;;5099119;28;20622;-83
2021/01/03 12:23:38;;;;;;;9.35;6.35;;;6.20;99.90;;;;;;5097308;28;20208;-79
2021/01/03 12:26:04;;;;;;;6.25;5.00;;;6.20;99.90;;;;;;5095132;28;20201;-79
2021/01/03 12:28:31;;;;;;;6.28;5.40;;;6.30;99.90;;;;;;5094473;28;20204;-80
2021/01/03 12:30:58;;;;;;;10.02;5.68;;;6.20;99.90;;;;;;5096328;28;20197;-79
2021/01/03 12:33:24;;;;;;;5.85;4.70;;;6.20;99.90;;;;;;5096763;28;20240;-80
2021/01/03 12:35:50;;;;;;;5.55;4.47;;;6.30;99.90;;;;;;5097313;28;20207;-79
2021/01/03 12:38:17;;;;;;;8.25;7.00;;;6.40;99.90;;;;;;5096101;28;20225;-81
2021/01/03 12:40:44;;;;;;;7.47;6.03;;;6.30;99.90;;;;;;5097944;28;20532;-83
2021/01/03 12:43:10;;;;;;;8.07;5.78;;;6.30;99.90;;;;;;5097468;28;20205;-76
2021/01/03 12:45:37;;;;;;;8.90;6.88;;;6.30;99.90;;;;;;5097777;28;20189;-77
2021/01/03 12:48:05;;;;;;;9.05;6.80;;;6.30;99.90;;;;;;5098423;28;20607;-80
2021/01/03 12:50:32;;;;;;;7.80;6.07;;;6.30;99.90;;;;;;5097647;28;20204;-81
2021/01/03 12:52:58;;;;;;;8.15;5.93;;;6.30;99.90;;;;;;5096765;28;20213;-88
2021/01/03 12:55:24;;;;;;;7.13;5.70;;;6.40;99.90;;;;;;5094736;28;20570;-86
2021/01/03 12:57:50;;;;;;;10.82;6.18;;;6.30;99.90;;;;;;5093541;28;20190;-88
2021/01/03 13:00:17;;;;;;;9.30;6.82;;;6.30;99.90;;;;;;5094855;28;20193;-80
2021/01/03 13:02:44;;;;;;;8.70;5.68;;;6.40;99.90;;;;;;5092918;28;20197;-83
2021/01/03 13:05:12;;;;;;;8.52;6.30;;;6.30;99.90;;;;;;5094568;28;20201;-78